Insula Oya 2 — FUKI — position and weather

sailwx.info

Track history (hours):
 
Tides and Currents Weather Stations Pressure Air Temp Water Temp Dewpoint Dewpoint Depression Visibility Wind Speed Wind Dir Waves Ship Positions

Insula Oya 2

Last reported at 2016-Jul-30 11:26 UTC. Time now 2016-Jul-31 01:38 UTC.
Position N 46°52' W 002°13'.

Length 50 m; draft 2.5 m.

Type: Passenger vessel. MMSI: 227004900.

Date/timePositionNaut miles runAvg speedWind from/ knotsBaromVisibWave heightAir tempDewpointWater temp
2016-Jul-30 11:26N 46°52' W 002°13'4 4.0
2016-Jul-30 10:28N 46°54' W 002°08'0 0.0
2016-Jul-30 09:31N 46°54' W 002°08'0 0.0
2016-Jul-30 08:31N 46°54' W 002°08'0 0.0
2016-Jul-30 07:31N 46°54' W 002°08'0 0.0
2016-Jul-30 06:31N 46°54' W 002°08'0 0.0
2016-Jul-30 05:31N 46°54' W 002°08'0 0.0
2016-Jul-30 04:31N 46°54' W 002°08'0 0.0
2016-Jul-30 03:28N 46°54' W 002°08'0 0.0
2016-Jul-30 02:31N 46°54' W 002°08'0 0.0
2016-Jul-30 01:31N 46°54' W 002°08'0 0.0
2016-Jul-30 00:28N 46°54' W 002°08'0 0.0
2016-Jul-29 23:31N 46°54' W 002°08'0 0.0
2016-Jul-29 22:28N 46°54' W 002°08'0 0.0
2016-Jul-29 21:31N 46°54' W 002°08'0 0.0
2016-Jul-29 20:31N 46°54' W 002°08'0 0.0
2016-Jul-29 19:31N 46°54' W 002°08'0 0.0
2016-Jul-29 18:31N 46°54' W 002°08'0 0.0
2016-Jul-29 17:31N 46°54' W 002°08'0 0.0
2016-Jul-29 16:31N 46°54' W 002°08'0 0.0
2016-Jul-29 15:28N 46°54' W 002°08'0 0.0
2016-Jul-29 14:31N 46°54' W 002°08'7 6.9
2016-Jul-29 13:33N 46°49' W 002°15'5 1.7
2016-Jul-29 10:32N 46°45' W 002°20'1212.0
2016-Jul-29 09:33N 46°54' W 002°09'0 0.1
2016-Jul-29 08:29N 46°54' W 002°08'0 0.0
2016-Jul-29 07:26N 46°54' W 002°08'0 0.0
2016-Jul-29 06:29N 46°54' W 002°08'0 0.0
2016-Jul-29 05:32N 46°54' W 002°08'0 0.0
2016-Jul-29 04:29N 46°54' W 002°08'0 0.0
2016-Jul-29 03:32N 46°54' W 002°08'0 0.0
2016-Jul-29 02:32N 46°54' W 002°08'0 0.0
2016-Jul-29 01:32N 46°54' W 002°08'0 0.0
2016-Jul-29 00:32N 46°54' W 002°08'0 0.0
2016-Jul-28 23:32N 46°54' W 002°08'0 0.0
2016-Jul-28 22:32N 46°54' W 002°08'0 0.0
2016-Jul-28 21:32N 46°54' W 002°08'0 0.0
2016-Jul-28 20:32N 46°54' W 002°08'0 0.0
2016-Jul-28 19:32N 46°54' W 002°08'0 0.0
2016-Jul-28 18:32N 46°54' W 002°08'0 0.0
2016-Jul-28 16:29N 46°54' W 002°08'0 0.0
2016-Jul-28 15:05N 46°54' W 002°08'0 0.0
2016-Jul-28 14:17N 46°54' W 002°08'0 0.0
2016-Jul-28 13:32N 46°54' W 002°08'1 1.3
2016-Jul-28 12:33N 46°54' W 002°10'2 0.5
2016-Jul-28 08:24N 46°52' W 002°12'3 3.4
2016-Jul-28 07:31N 46°54' W 002°08'0 0.0
2016-Jul-28 06:16N 46°54' W 002°08'0 0.0
2016-Jul-28 05:25N 46°54' W 002°08'0 0.0
2016-Jul-28 04:13N 46°54' W 002°08'0 0.0
2016-Jul-28 03:31N 46°54' W 002°08'0 0.0
2016-Jul-28 02:16N 46°54' W 002°08'0 0.0
2016-Jul-28 01:31N 46°54' W 002°08'0 0.0
2016-Jul-28 00:31N 46°54' W 002°08'0 0.0
2016-Jul-27 23:31N 46°54' W 002°08'0 0.0
2016-Jul-27 22:31N 46°54' W 002°08'0 0.0
2016-Jul-27 21:31N 46°54' W 002°08'0 0.0
2016-Jul-27 20:31N 46°54' W 002°08'0 0.0
2016-Jul-27 19:28N 46°54' W 002°08'0 0.0
2016-Jul-27 18:31N 46°54' W 002°08'0 0.0
2016-Jul-27 15:16N 46°54' W 002°08'0 0.0
2016-Jul-27 13:04N 46°54' W 002°08'0 0.0
2016-Jul-27 11:33N 46°54' W 002°08'4 0.8
2016-Jul-27 07:13N 46°52' W 002°13'4 5.4
2016-Jul-27 06:33N 46°54' W 002°08'0 0.0
2016-Jul-27 05:31N 46°54' W 002°08'0 0.0
2016-Jul-27 04:31N 46°54' W 002°08'0 0.0
2016-Jul-27 03:31N 46°54' W 002°08'0 0.0
2016-Jul-27 02:31N 46°54' W 002°08'0 0.0
2016-Jul-27 01:28N 46°54' W 002°08'0 0.0
2016-Jul-27 00:31N 46°54' W 002°08'0 0.0
2016-Jul-26 23:31N 46°54' W 002°08'0 0.0
2016-Jul-26 22:28N 46°54' W 002°08'0 0.0
2016-Jul-26 21:28N 46°54' W 002°08'0 0.0
2016-Jul-26 20:31N 46°54' W 002°08'0 0.0
2016-Jul-26 19:31N 46°54' W 002°08'0 0.0
2016-Jul-26 18:31N 46°54' W 002°08'0 0.0
2016-Jul-26 17:31N 46°54' W 002°08'0 0.0
2016-Jul-26 10:31N 46°54' W 002°08'6 1.5
2016-Jul-26 06:28N 46°50' W 002°15'6 6.8
2016-Jul-26 05:33N 46°54' W 002°08'0 0.0
2016-Jul-26 04:33N 46°54' W 002°08'0 0.0
2016-Jul-26 03:33N 46°54' W 002°08'0 0.0
2016-Jul-26 02:33N 46°54' W 002°08'0 0.0
2016-Jul-26 01:33N 46°54' W 002°08'0 0.0
2016-Jul-26 00:33N 46°54' W 002°08'0 0.0
2016-Jul-25 23:33N 46°54' W 002°08'0 0.0
2016-Jul-25 22:33N 46°54' W 002°08'0 0.0
2016-Jul-25 21:27N 46°54' W 002°08'0 0.0
2016-Jul-25 20:33N 46°54' W 002°08'0 0.0
2016-Jul-25 19:33N 46°54' W 002°08'0 0.0
2016-Jul-25 18:30N 46°54' W 002°08'7 7.0
2016-Jul-25 17:29N 46°48' W 002°16'5 0.6
2016-Jul-25 08:32N 46°53' W 002°12'2 2.5
2016-Jul-25 07:33N 46°54' W 002°08'0 0.0
2016-Jul-25 06:33N 46°54' W 002°08'13 0.9
2016-Jul-24 16:08N 46°44' W 002°21'0 0.0
2016-Jul-24 15:25N 46°44' W 002°21'0 0.0
2016-Jul-24 09:25N 46°44' W 002°21'0 0.0
2016-Jul-24 04:09N 46°44' W 002°21'0 0.0
2016-Jul-24 03:17N 46°44' W 002°21'10 0.5
2016-Jul-23 07:30N 46°52' W 002°13'4 3.7
2016-Jul-23 06:33N 46°54' W 002°08'0 0.0
2016-Jul-23 04:33N 46°54' W 002°08'0 0.0
2016-Jul-23 03:33N 46°54' W 002°08'0 0.0
2016-Jul-23 02:33N 46°54' W 002°08'0 0.0
2016-Jul-23 01:34N 46°54' W 002°08'0 0.0
2016-Jul-23 00:33N 46°54' W 002°08'0 0.0
2016-Jul-22 23:34N 46°54' W 002°08'0 0.0
2016-Jul-22 22:33N 46°54' W 002°08'0 0.0
2016-Jul-22 21:33N 46°54' W 002°08'0 0.0
2016-Jul-22 20:33N 46°54' W 002°08'0 0.0
2016-Jul-22 19:33N 46°54' W 002°08'0 0.0
2016-Jul-22 18:33N 46°54' W 002°08'0 0.0
2016-Jul-22 17:33N 46°54' W 002°08'0 0.0
2016-Jul-22 16:33N 46°54' W 002°08'1 0.9
2016-Jul-22 15:33N 46°54' W 002°10'9 1.1
2016-Jul-22 07:04N 46°46' W 002°18'10 6.5
2016-Jul-22 05:33N 46°54' W 002°08'0 0.0
2016-Jul-22 04:33N 46°54' W 002°08'10 9.7
2016-Jul-22 03:33N 46°46' W 002°18'4 0.9
2016-Jul-21 23:33N 46°44' W 002°21'0 0.0
2016-Jul-21 22:34N 46°44' W 002°21'0 0.0
2016-Jul-21 21:28N 46°44' W 002°21'0 0.0
2016-Jul-21 20:31N 46°44' W 002°21'0 0.0
2016-Jul-21 19:33N 46°44' W 002°21'0 0.0
2016-Jul-21 18:30N 46°44' W 002°21'3 3.3
2016-Jul-21 17:33N 46°46' W 002°18'1010.2
2016-Jul-21 16:34N 46°54' W 002°08'0 0.0
2016-Jul-21 15:33N 46°54' W 002°08'4 3.8
2016-Jul-21 14:33N 46°52' W 002°13'7 0.8
2016-Jul-21 06:21N 46°46' W 002°18'1012.9
2016-Jul-21 05:34N 46°54' W 002°08'0 0.1
2016-Jul-21 04:33N 46°54' W 002°08'7 6.4
2016-Jul-21 03:32N 46°49' W 002°15'5 0.5
2016-Jul-20 17:13N 46°45' W 002°19'913.9
2016-Jul-20 16:33N 46°53' W 002°11'2 2.2
2016-Jul-20 15:33N 46°54' W 002°08'0 0.0
2016-Jul-20 14:33N 46°54' W 002°08'  
Track history (hours):
 
Tides and Currents Weather Stations Pressure Air Temp Water Temp Dewpoint Dewpoint Depression Visibility Wind Speed Wind Dir Waves Ship Positions

Insula Oya 2

Last reported at 2016-Jul-30 11:26 UTC. Time now 2016-Jul-31 01:38 UTC.
Position N 46°52' W 002°13'.

Length 50 m; draft 2.5 m.

Type: Passenger vessel. MMSI: 227004900.

Date/timePositionNaut miles runAvg speedWind from/ knotsBaromVisibWave heightAir tempDewpointWater temp
2016-Jul-30 11:26N 46°52' W 002°13'4 4.0
2016-Jul-30 10:28N 46°54' W 002°08'0 0.0
2016-Jul-30 09:31N 46°54' W 002°08'0 0.0
2016-Jul-30 08:31N 46°54' W 002°08'0 0.0
2016-Jul-30 07:31N 46°54' W 002°08'0 0.0
2016-Jul-30 06:31N 46°54' W 002°08'0 0.0
2016-Jul-30 05:31N 46°54' W 002°08'0 0.0
2016-Jul-30 04:31N 46°54' W 002°08'0 0.0
2016-Jul-30 03:28N 46°54' W 002°08'0 0.0
2016-Jul-30 02:31N 46°54' W 002°08'0 0.0
2016-Jul-30 01:31N 46°54' W 002°08'0 0.0
2016-Jul-30 00:28N 46°54' W 002°08'0 0.0
2016-Jul-29 23:31N 46°54' W 002°08'0 0.0
2016-Jul-29 22:28N 46°54' W 002°08'0 0.0
2016-Jul-29 21:31N 46°54' W 002°08'0 0.0
2016-Jul-29 20:31N 46°54' W 002°08'0 0.0
2016-Jul-29 19:31N 46°54' W 002°08'0 0.0
2016-Jul-29 18:31N 46°54' W 002°08'0 0.0
2016-Jul-29 17:31N 46°54' W 002°08'0 0.0
2016-Jul-29 16:31N 46°54' W 002°08'0 0.0
2016-Jul-29 15:28N 46°54' W 002°08'0 0.0
2016-Jul-29 14:31N 46°54' W 002°08'7 6.9
2016-Jul-29 13:33N 46°49' W 002°15'5 1.7
2016-Jul-29 10:32N 46°45' W 002°20'1212.0
2016-Jul-29 09:33N 46°54' W 002°09'0 0.1
2016-Jul-29 08:29N 46°54' W 002°08'0 0.0
2016-Jul-29 07:26N 46°54' W 002°08'0 0.0
2016-Jul-29 06:29N 46°54' W 002°08'0 0.0
2016-Jul-29 05:32N 46°54' W 002°08'0 0.0
2016-Jul-29 04:29N 46°54' W 002°08'0 0.0
2016-Jul-29 03:32N 46°54' W 002°08'0 0.0
2016-Jul-29 02:32N 46°54' W 002°08'0 0.0
2016-Jul-29 01:32N 46°54' W 002°08'0 0.0
2016-Jul-29 00:32N 46°54' W 002°08'0 0.0
2016-Jul-28 23:32N 46°54' W 002°08'0 0.0
2016-Jul-28 22:32N 46°54' W 002°08'0 0.0
2016-Jul-28 21:32N 46°54' W 002°08'0 0.0
2016-Jul-28 20:32N 46°54' W 002°08'0 0.0
2016-Jul-28 19:32N 46°54' W 002°08'0 0.0
2016-Jul-28 18:32N 46°54' W 002°08'0 0.0
2016-Jul-28 16:29N 46°54' W 002°08'0 0.0
2016-Jul-28 15:05N 46°54' W 002°08'0 0.0
2016-Jul-28 14:17N 46°54' W 002°08'0 0.0
2016-Jul-28 13:32N 46°54' W 002°08'1 1.3
2016-Jul-28 12:33N 46°54' W 002°10'2 0.5
2016-Jul-28 08:24N 46°52' W 002°12'3 3.4
2016-Jul-28 07:31N 46°54' W 002°08'0 0.0
2016-Jul-28 06:16N 46°54' W 002°08'0 0.0
2016-Jul-28 05:25N 46°54' W 002°08'0 0.0
2016-Jul-28 04:13N 46°54' W 002°08'0 0.0
2016-Jul-28 03:31N 46°54' W 002°08'0 0.0
2016-Jul-28 02:16N 46°54' W 002°08'0 0.0
2016-Jul-28 01:31N 46°54' W 002°08'0 0.0
2016-Jul-28 00:31N 46°54' W 002°08'0 0.0
2016-Jul-27 23:31N 46°54' W 002°08'0 0.0
2016-Jul-27 22:31N 46°54' W 002°08'0 0.0
2016-Jul-27 21:31N 46°54' W 002°08'0 0.0
2016-Jul-27 20:31N 46°54' W 002°08'0 0.0
2016-Jul-27 19:28N 46°54' W 002°08'0 0.0
2016-Jul-27 18:31N 46°54' W 002°08'0 0.0
2016-Jul-27 15:16N 46°54' W 002°08'0 0.0
2016-Jul-27 13:04N 46°54' W 002°08'0 0.0
2016-Jul-27 11:33N 46°54' W 002°08'4 0.8
2016-Jul-27 07:13N 46°52' W 002°13'4 5.4
2016-Jul-27 06:33N 46°54' W 002°08'0 0.0
2016-Jul-27 05:31N 46°54' W 002°08'0 0.0
2016-Jul-27 04:31N 46°54' W 002°08'0 0.0
2016-Jul-27 03:31N 46°54' W 002°08'0 0.0
2016-Jul-27 02:31N 46°54' W 002°08'0 0.0
2016-Jul-27 01:28N 46°54' W 002°08'0 0.0
2016-Jul-27 00:31N 46°54' W 002°08'0 0.0
2016-Jul-26 23:31N 46°54' W 002°08'0 0.0
2016-Jul-26 22:28N 46°54' W 002°08'0 0.0
2016-Jul-26 21:28N 46°54' W 002°08'0 0.0
2016-Jul-26 20:31N 46°54' W 002°08'0 0.0
2016-Jul-26 19:31N 46°54' W 002°08'0 0.0
2016-Jul-26 18:31N 46°54' W 002°08'0 0.0
2016-Jul-26 17:31N 46°54' W 002°08'0 0.0
2016-Jul-26 10:31N 46°54' W 002°08'6 1.5
2016-Jul-26 06:28N 46°50' W 002°15'6 6.8
2016-Jul-26 05:33N 46°54' W 002°08'0 0.0
2016-Jul-26 04:33N 46°54' W 002°08'0 0.0
2016-Jul-26 03:33N 46°54' W 002°08'0 0.0
2016-Jul-26 02:33N 46°54' W 002°08'0 0.0
2016-Jul-26 01:33N 46°54' W 002°08'0 0.0
2016-Jul-26 00:33N 46°54' W 002°08'0 0.0
2016-Jul-25 23:33N 46°54' W 002°08'0 0.0
2016-Jul-25 22:33N 46°54' W 002°08'0 0.0
2016-Jul-25 21:27N 46°54' W 002°08'0 0.0
2016-Jul-25 20:33N 46°54' W 002°08'0 0.0
2016-Jul-25 19:33N 46°54' W 002°08'0 0.0
2016-Jul-25 18:30N 46°54' W 002°08'7 7.0
2016-Jul-25 17:29N 46°48' W 002°16'5 0.6
2016-Jul-25 08:32N 46°53' W 002°12'2 2.5
2016-Jul-25 07:33N 46°54' W 002°08'0 0.0
2016-Jul-25 06:33N 46°54' W 002°08'13 0.9
2016-Jul-24 16:08N 46°44' W 002°21'0 0.0
2016-Jul-24 15:25N 46°44' W 002°21'0 0.0
2016-Jul-24 09:25N 46°44' W 002°21'0 0.0
2016-Jul-24 04:09N 46°44' W 002°21'0 0.0
2016-Jul-24 03:17N 46°44' W 002°21'10 0.5
2016-Jul-23 07:30N 46°52' W 002°13'4 3.7
2016-Jul-23 06:33N 46°54' W 002°08'0 0.0
2016-Jul-23 04:33N 46°54' W 002°08'0 0.0
2016-Jul-23 03:33N 46°54' W 002°08'0 0.0
2016-Jul-23 02:33N 46°54' W 002°08'0 0.0
2016-Jul-23 01:34N 46°54' W 002°08'0 0.0
2016-Jul-23 00:33N 46°54' W 002°08'0 0.0
2016-Jul-22 23:34N 46°54' W 002°08'0 0.0
2016-Jul-22 22:33N 46°54' W 002°08'0 0.0
2016-Jul-22 21:33N 46°54' W 002°08'0 0.0
2016-Jul-22 20:33N 46°54' W 002°08'0 0.0
2016-Jul-22 19:33N 46°54' W 002°08'0 0.0
2016-Jul-22 18:33N 46°54' W 002°08'0 0.0
2016-Jul-22 17:33N 46°54' W 002°08'0 0.0
2016-Jul-22 16:33N 46°54' W 002°08'1 0.9
2016-Jul-22 15:33N 46°54' W 002°10'9 1.1
2016-Jul-22 07:04N 46°46' W 002°18'10 6.5
2016-Jul-22 05:33N 46°54' W 002°08'0 0.0
2016-Jul-22 04:33N 46°54' W 002°08'10 9.7
2016-Jul-22 03:33N 46°46' W 002°18'4 0.9
2016-Jul-21 23:33N 46°44' W 002°21'0 0.0
2016-Jul-21 22:34N 46°44' W 002°21'0 0.0
2016-Jul-21 21:28N 46°44' W 002°21'0 0.0
2016-Jul-21 20:31N 46°44' W 002°21'0 0.0
2016-Jul-21 19:33N 46°44' W 002°21'0 0.0
2016-Jul-21 18:30N 46°44' W 002°21'3 3.3
2016-Jul-21 17:33N 46°46' W 002°18'1010.2
2016-Jul-21 16:34N 46°54' W 002°08'0 0.0
2016-Jul-21 15:33N 46°54' W 002°08'4 3.8
2016-Jul-21 14:33N 46°52' W 002°13'7 0.8
2016-Jul-21 06:21N 46°46' W 002°18'1012.9
2016-Jul-21 05:34N 46°54' W 002°08'0 0.1
2016-Jul-21 04:33N 46°54' W 002°08'7 6.4
2016-Jul-21 03:32N 46°49' W 002°15'5 0.5
2016-Jul-20 17:13N 46°45' W 002°19'913.9
2016-Jul-20 16:33N 46°53' W 002°11'2 2.2
2016-Jul-20 15:33N 46°54' W 002°08'0 0.0
2016-Jul-20 14:33N 46°54' W 002°08'  

Dump ship's entire track history